CMA CGM Swordfish — 2ABB2 — position and weather

sailwx.info

Track history (hours):
 
Tides and Currents Weather Stations Pressure Air Temp Water Temp Dewpoint Dewpoint Depression Visibility Wind Speed Wind Dir Waves Ship Positions

CMA CGM Swordfish

Last reported at 2018-Jan-24 01:14 UTC. Time now 2018-Jan-24 01:45 UTC.
Position N 01°16' E 103°47'.

Length 293 m; draft 11 m.

Type: Cargo ship. MMSI: 235058391.

Date/timePositionNaut miles runAvg speedWind from/ knotsBaromVisibWave heightAir tempDewpointWater temp
2018-Jan-24 01:14N 01°16' E 103°47'0 0.0
2018-Jan-24 00:56N 01°16' E 103°47'0 0.0
2018-Jan-24 00:29N 01°16' E 103°47'0 0.0
2018-Jan-23 23:56N 01°16' E 103°47'0 0.0
2018-Jan-23 23:20N 01°16' E 103°47'0 0.0
2018-Jan-23 22:47N 01°16' E 103°47'0 0.0
2018-Jan-23 22:26N 01°16' E 103°47'0 0.0
2018-Jan-23 21:53N 01°16' E 103°47'0 0.0
2018-Jan-23 21:29N 01°16' E 103°47'0 0.0
2018-Jan-23 20:47N 01°16' E 103°47'0 0.0
2018-Jan-23 20:29N 01°16' E 103°47'0 0.0
2018-Jan-23 19:59N 01°16' E 103°47'0 0.0
2018-Jan-23 19:17N 01°16' E 103°47'0 0.0
2018-Jan-23 18:47N 01°16' E 103°47'0 0.0
2018-Jan-23 18:29N 01°16' E 103°47'0 0.0
2018-Jan-23 17:53N 01°16' E 103°47'0 0.0
2018-Jan-23 17:26N 01°16' E 103°47'0 0.0
2018-Jan-23 16:53N 01°16' E 103°47'0 0.0
2018-Jan-23 15:47N 01°16' E 103°47'0 0.0
2018-Jan-23 15:29N 01°16' E 103°47'0 0.1
2018-Jan-23 14:38N 01°16' E 103°47'0 0.8
2018-Jan-23 14:30N 01°16' E 103°47'2 3.4
2018-Jan-23 14:00N 01°15' E 103°46'4 7.4
2018-Jan-23 13:28N 01°14' E 103°42'612.3
2018-Jan-23 13:00N 01°12' E 103°37'4 8.5
2018-Jan-23 12:30N 01°10' E 103°33'5 9.4
2018-Jan-23 11:59N 01°10' E 103°28'510.1
2018-Jan-23 11:30N 01°13' E 103°24'510.2
2018-Jan-23 10:59N 01°16' E 103°20'8 0.2
2018-Jan-21 16:08N 01°22' E 103°14'515.8
2018-Jan-21 15:51N 01°19' E 103°18'515.4
2018-Jan-21 15:30N 01°16' E 103°22'815.6
2018-Jan-21 14:59N 01°14' E 103°30'1615.7
2018-Jan-21 13:59N 01°09' E 103°45'816.5
2018-Jan-21 13:30N 01°12' E 103°52'816.7
2018-Jan-21 13:00N 01°15' E 103°59'  
Track history (hours):
 
Tides and Currents Weather Stations Pressure Air Temp Water Temp Dewpoint Dewpoint Depression Visibility Wind Speed Wind Dir Waves Ship Positions

CMA CGM Swordfish

Last reported at 2018-Jan-24 01:14 UTC. Time now 2018-Jan-24 01:45 UTC.
Position N 01°16' E 103°47'.

Length 293 m; draft 11 m.

Type: Cargo ship. MMSI: 235058391.

Date/timePositionNaut miles runAvg speedWind from/ knotsBaromVisibWave heightAir tempDewpointWater temp
2018-Jan-24 01:14N 01°16' E 103°47'0 0.0
2018-Jan-24 00:56N 01°16' E 103°47'0 0.0
2018-Jan-24 00:29N 01°16' E 103°47'0 0.0
2018-Jan-23 23:56N 01°16' E 103°47'0 0.0
2018-Jan-23 23:20N 01°16' E 103°47'0 0.0
2018-Jan-23 22:47N 01°16' E 103°47'0 0.0
2018-Jan-23 22:26N 01°16' E 103°47'0 0.0
2018-Jan-23 21:53N 01°16' E 103°47'0 0.0
2018-Jan-23 21:29N 01°16' E 103°47'0 0.0
2018-Jan-23 20:47N 01°16' E 103°47'0 0.0
2018-Jan-23 20:29N 01°16' E 103°47'0 0.0
2018-Jan-23 19:59N 01°16' E 103°47'0 0.0
2018-Jan-23 19:17N 01°16' E 103°47'0 0.0
2018-Jan-23 18:47N 01°16' E 103°47'0 0.0
2018-Jan-23 18:29N 01°16' E 103°47'0 0.0
2018-Jan-23 17:53N 01°16' E 103°47'0 0.0
2018-Jan-23 17:26N 01°16' E 103°47'0 0.0
2018-Jan-23 16:53N 01°16' E 103°47'0 0.0
2018-Jan-23 15:47N 01°16' E 103°47'0 0.0
2018-Jan-23 15:29N 01°16' E 103°47'0 0.1
2018-Jan-23 14:38N 01°16' E 103°47'0 0.8
2018-Jan-23 14:30N 01°16' E 103°47'2 3.4
2018-Jan-23 14:00N 01°15' E 103°46'4 7.4
2018-Jan-23 13:28N 01°14' E 103°42'612.3
2018-Jan-23 13:00N 01°12' E 103°37'4 8.5
2018-Jan-23 12:30N 01°10' E 103°33'5 9.4
2018-Jan-23 11:59N 01°10' E 103°28'510.1
2018-Jan-23 11:30N 01°13' E 103°24'510.2
2018-Jan-23 10:59N 01°16' E 103°20'8 0.2
2018-Jan-21 16:08N 01°22' E 103°14'515.8
2018-Jan-21 15:51N 01°19' E 103°18'515.4
2018-Jan-21 15:30N 01°16' E 103°22'815.6
2018-Jan-21 14:59N 01°14' E 103°30'1615.7
2018-Jan-21 13:59N 01°09' E 103°45'816.5
2018-Jan-21 13:30N 01°12' E 103°52'816.7
2018-Jan-21 13:00N 01°15' E 103°59'  

Dump ship's entire track history